createdAt,value
2023-03-29T00:01:03.268Z,1.30
2023-03-29T00:03:35.864Z,1.00
2023-03-29T00:06:08.654Z,1.30
2023-03-29T00:08:40.862Z,1.50
2023-03-29T00:11:13.076Z,1.10
2023-03-29T00:13:45.065Z,1.80
2023-03-29T00:16:17.759Z,1.20
2023-03-29T00:18:49.800Z,2.00
2023-03-29T00:21:22.485Z,1.50
2023-03-29T00:23:54.656Z,1.30
2023-03-29T00:26:26.867Z,2.40
2023-03-29T00:28:58.848Z,2.30
2023-03-29T00:31:31.642Z,2.20
2023-03-29T00:34:03.658Z,2.60
2023-03-29T00:36:35.487Z,1.50
2023-03-29T00:39:07.433Z,2.40
2023-03-29T00:41:39.302Z,1.30
2023-03-29T00:44:42.071Z,1.60
2023-03-29T00:47:14.043Z,1.90
2023-03-29T00:49:46.339Z,2.30
2023-03-29T00:52:21.582Z,2.20
2023-03-29T00:54:56.123Z,1.20
2023-03-29T00:57:30.566Z,1.70
2023-03-29T01:00:05.497Z,2.40
2023-03-29T01:02:40.025Z,1.00
2023-03-29T01:05:14.974Z,2.80
2023-03-29T01:07:52.360Z,1.90
2023-03-29T01:10:28.992Z,1.00
2023-03-29T01:13:06.214Z,2.00
2023-03-29T01:15:38.430Z,1.40
2023-03-29T01:18:10.684Z,1.70
2023-03-29T01:20:51.468Z,2.00
2023-03-29T01:23:41.300Z,1.50
2023-03-29T01:26:18.171Z,2.20
2023-03-29T01:28:56.920Z,2.00
2023-03-29T01:31:31.086Z,2.00
2023-03-29T01:34:07.014Z,2.40
2023-03-29T01:36:42.668Z,2.20
2023-03-29T01:39:14.566Z,2.10
2023-03-29T01:41:53.533Z,1.80
2023-03-29T01:44:30.776Z,2.00
2023-03-29T01:47:08.660Z,2.00
2023-03-29T01:49:43.922Z,1.60
2023-03-29T01:52:18.311Z,3.00
2023-03-29T01:54:54.400Z,1.30
2023-03-29T01:57:28.140Z,3.40
2023-03-29T02:00:00.891Z,0.60
2023-03-29T02:02:33.469Z,2.90
2023-03-29T02:05:05.943Z,1.90
2023-03-29T02:07:40.804Z,2.10
2023-03-29T02:10:14.646Z,2.10
2023-03-29T02:12:46.486Z,2.30
2023-03-29T02:15:20.576Z,2.90
2023-03-29T02:20:26.138Z,2.30
2023-03-29T02:23:02.968Z,3.00
2023-03-29T02:25:35.120Z,2.20
2023-03-29T02:28:07.973Z,2.00
2023-03-29T02:30:46.632Z,2.40
2023-03-29T02:33:24.058Z,4.20
2023-03-29T02:35:57.988Z,2.30
2023-03-29T02:38:31.501Z,2.30
2023-03-29T02:41:04.211Z,2.00
2023-03-29T02:43:37.832Z,1.70
2023-03-29T02:46:10.302Z,2.90
2023-03-29T02:48:42.526Z,1.70
2023-03-29T02:51:19.929Z,0.90
2023-03-29T02:53:56.157Z,1.90
2023-03-29T02:56:28.545Z,2.00
2023-03-29T02:59:00.618Z,1.30
2023-03-29T03:01:32.790Z,2.10
2023-03-29T03:04:04.889Z,2.60
2023-03-29T03:06:37.633Z,1.80
2023-03-29T03:09:10.102Z,2.00
2023-03-29T03:11:42.451Z,2.40
2023-03-29T03:14:14.185Z,2.20
2023-03-29T03:16:46.661Z,3.00
2023-03-29T03:19:19.187Z,1.80
2023-03-29T03:21:51.242Z,2.80
2023-03-29T03:24:23.111Z,1.80
2023-03-29T03:26:55.496Z,2.80
2023-03-29T03:29:28.487Z,1.90
2023-03-29T03:32:01.221Z,1.20
2023-03-29T03:34:34.786Z,3.30
2023-03-29T03:37:06.919Z,2.50
2023-03-29T03:39:38.973Z,1.80
2023-03-29T03:42:11.496Z,2.90
2023-03-29T03:44:45.002Z,2.90
2023-03-29T03:47:17.151Z,2.90
2023-03-29T03:49:49.065Z,1.40
2023-03-29T03:52:21.568Z,1.80
2023-03-29T03:54:53.568Z,2.50
2023-03-29T03:57:25.515Z,1.70
2023-03-29T03:59:57.596Z,1.80
2023-03-29T04:02:29.700Z,3.00
2023-03-29T04:05:03.525Z,2.50
2023-03-29T04:07:37.196Z,1.70
2023-03-29T04:10:11.269Z,1.80
2023-03-29T04:15:13.777Z,3.30
2023-03-29T04:17:46.141Z,1.40
2023-03-29T04:20:18.924Z,1.30
2023-03-29T04:22:50.990Z,1.40
2023-03-29T04:25:23.374Z,1.40
2023-03-29T04:27:55.663Z,1.80
2023-03-29T04:30:28.197Z,3.30
2023-03-29T04:33:00.318Z,1.10
2023-03-29T04:35:32.499Z,1.90
2023-03-29T04:38:10.314Z,1.50
2023-03-29T04:40:43.907Z,3.40
2023-03-29T04:43:16.128Z,4.50
2023-03-29T04:45:48.042Z,1.90
2023-03-29T04:48:20.333Z,2.20
2023-03-29T04:50:52.402Z,4.20
2023-03-29T04:53:24.687Z,2.30
2023-03-29T04:55:59.016Z,4.70
2023-03-29T04:58:32.505Z,2.40
2023-03-29T05:01:05.906Z,2.90
2023-03-29T05:03:37.837Z,2.80
2023-03-29T05:06:12.200Z,4.10
2023-03-29T05:08:44.817Z,1.40
2023-03-29T05:11:17.643Z,2.30
2023-03-29T05:13:49.825Z,2.00
2023-03-29T05:16:21.931Z,3.40
2023-03-29T05:18:55.496Z,3.00
2023-03-29T05:21:28.494Z,1.50
2023-03-29T05:24:00.625Z,3.30
2023-03-29T05:26:32.475Z,3.70
2023-03-29T05:29:04.837Z,3.00
2023-03-29T05:31:37.905Z,2.30
2023-03-29T05:34:09.891Z,1.50
2023-03-29T05:36:42.926Z,4.30
2023-03-29T05:39:15.729Z,4.20
2023-03-29T05:41:47.610Z,3.40
2023-03-29T05:44:20.450Z,5.00
2023-03-29T05:46:52.205Z,3.00
2023-03-29T05:49:24.579Z,1.30
2023-03-29T05:51:57.273Z,2.80
2023-03-29T05:54:29.713Z,4.40
2023-03-29T05:57:01.777Z,2.60
2023-03-29T05:59:34.196Z,2.80
2023-03-29T06:02:06.108Z,3.50
2023-03-29T06:04:38.664Z,3.50
2023-03-29T06:07:12.530Z,4.30
2023-03-29T06:09:44.964Z,2.30
2023-03-29T06:12:20.154Z,3.20
2023-03-29T06:14:52.282Z,3.20
2023-03-29T06:17:24.239Z,2.20
2023-03-29T06:19:57.954Z,3.00
2023-03-29T06:22:32.603Z,2.30
2023-03-29T06:25:04.695Z,2.70
2023-03-29T06:27:36.830Z,2.00
2023-03-29T06:30:10.588Z,2.90
2023-03-29T06:32:42.577Z,2.80
2023-03-29T06:35:15.199Z,2.60
2023-03-29T06:37:50.487Z,2.80
2023-03-29T06:40:23.074Z,6.70
2023-03-29T06:42:57.985Z,1.90
2023-03-29T06:45:31.000Z,2.50
2023-03-29T06:48:03.387Z,2.80
2023-03-29T06:50:35.892Z,2.80
2023-03-29T06:53:07.854Z,2.20
2023-03-29T06:55:39.995Z,2.20
2023-03-29T06:58:11.978Z,1.90
2023-03-29T07:00:44.102Z,2.40
2023-03-29T07:03:20.519Z,1.20
2023-03-29T07:05:53.174Z,3.10
2023-03-29T07:08:31.385Z,3.20
2023-03-29T07:11:04.108Z,5.40
2023-03-29T07:13:36.940Z,1.80
2023-03-29T07:16:12.898Z,2.80
2023-03-29T07:18:45.570Z,2.50
2023-03-29T07:21:17.875Z,3.30
2023-03-29T07:23:49.781Z,1.70
2023-03-29T07:26:28.946Z,1.40
2023-03-29T07:29:02.069Z,1.60
2023-03-29T07:31:35.969Z,2.10
2023-03-29T07:34:10.882Z,3.80
2023-03-29T07:36:45.414Z,2.00
2023-03-29T07:39:17.748Z,2.10
2023-03-29T07:41:50.174Z,2.70
2023-03-29T07:44:25.882Z,3.10
2023-03-29T07:47:00.325Z,2.90
2023-03-29T07:49:32.317Z,3.00
2023-03-29T07:52:04.620Z,2.80
2023-03-29T07:54:36.672Z,2.80
2023-03-29T07:57:08.616Z,2.50
2023-03-29T07:59:40.794Z,2.20
2023-03-29T08:02:14.183Z,2.20
2023-03-29T08:04:47.095Z,1.90
2023-03-29T08:07:21.327Z,3.90
2023-03-29T08:09:53.348Z,3.40
2023-03-29T08:12:25.208Z,4.00
2023-03-29T08:14:57.381Z,3.50
2023-03-29T08:17:29.931Z,3.70
2023-03-29T08:20:02.391Z,2.40
2023-03-29T08:22:35.086Z,1.80
2023-03-29T08:25:08.437Z,2.30
2023-03-29T08:27:40.540Z,2.10
2023-03-29T08:30:17.487Z,3.00
2023-03-29T08:32:52.293Z,4.00
2023-03-29T08:35:25.761Z,3.10
2023-03-29T08:37:57.746Z,2.90
2023-03-29T08:40:31.306Z,2.30
2023-03-29T08:43:18.110Z,1.90
2023-03-29T08:45:57.288Z,3.10
2023-03-29T08:48:32.162Z,2.10
2023-03-29T08:51:09.322Z,2.90
2023-03-29T08:53:45.304Z,2.00
2023-03-29T08:56:19.697Z,2.60
2023-03-29T08:58:53.203Z,1.60
2023-03-29T09:01:26.977Z,1.60
2023-03-29T09:04:05.531Z,1.80
2023-03-29T09:06:37.524Z,1.50
2023-03-29T09:09:16.803Z,1.70
2023-03-29T09:12:11.513Z,1.70
2023-03-29T09:14:52.438Z,2.80
2023-03-29T09:17:34.338Z,2.30
2023-03-29T09:20:15.689Z,2.20
2023-03-29T09:22:56.694Z,1.90
2023-03-29T09:25:40.965Z,2.40
2023-03-29T09:28:22.707Z,2.30
2023-03-29T09:31:00.887Z,2.10
2023-03-29T09:33:42.786Z,2.10
2023-03-29T09:36:18.490Z,2.60
2023-03-29T09:38:54.470Z,1.90
2023-03-29T09:41:31.704Z,1.70
2023-03-29T09:44:10.754Z,2.70
2023-03-29T09:46:47.397Z,2.00
2023-03-29T09:49:22.320Z,1.70
2023-03-29T09:51:54.394Z,1.60
2023-03-29T09:54:26.627Z,2.60
2023-03-29T09:56:59.439Z,1.70
2023-03-29T09:59:31.474Z,1.60
2023-03-29T10:02:11.203Z,2.10
2023-03-29T10:04:43.609Z,2.30
2023-03-29T10:07:21.025Z,1.70
2023-03-29T10:09:55.302Z,1.70
2023-03-29T10:15:02.929Z,1.40
2023-03-29T10:17:42.828Z,2.80
2023-03-29T10:20:18.482Z,1.60
2023-03-29T10:22:55.912Z,2.50
2023-03-29T10:25:31.580Z,2.50
2023-03-29T10:28:08.091Z,2.80
2023-03-29T10:30:40.966Z,2.90
2023-03-29T10:33:20.451Z,2.70
2023-03-29T10:35:53.634Z,2.50
2023-03-29T10:38:28.333Z,2.80
2023-03-29T10:41:08.182Z,2.10
2023-03-29T10:43:44.340Z,3.10
2023-03-29T10:46:24.137Z,2.50
2023-03-29T10:48:59.225Z,2.80
2023-03-29T10:51:32.409Z,2.60
2023-03-29T10:54:05.777Z,1.60
2023-03-29T10:56:40.711Z,3.30
2023-03-29T10:59:28.447Z,4.20
2023-03-29T11:02:24.406Z,3.30
2023-03-29T11:05:06.605Z,3.50
2023-03-29T11:07:42.029Z,3.00
2023-03-29T11:10:31.093Z,2.90
2023-03-29T11:13:09.057Z,3.10
2023-03-29T11:15:50.297Z,3.30
2023-03-29T11:19:04.079Z,2.80
2023-03-29T11:21:39.713Z,2.70
2023-03-29T11:24:28.184Z,2.60
2023-03-29T11:27:12.530Z,2.70
2023-03-29T11:29:52.865Z,3.00
2023-03-29T11:32:33.599Z,2.90
2023-03-29T11:35:16.626Z,3.30
2023-03-29T11:37:54.167Z,3.50
2023-03-29T11:40:36.140Z,2.70
2023-03-29T11:43:12.900Z,2.80
2023-03-29T11:45:48.148Z,2.70
2023-03-29T11:48:22.394Z,2.80
2023-03-29T11:50:56.338Z,3.20
2023-03-29T11:56:12.084Z,2.20
2023-03-29T11:58:46.123Z,2.70
2023-03-29T12:03:56.824Z,3.00
2023-03-29T12:06:31.273Z,2.60
2023-03-29T12:09:05.812Z,2.60
2023-03-29T12:11:41.968Z,4.20
2023-03-29T12:14:17.842Z,3.30
2023-03-29T12:16:53.098Z,3.20
2023-03-29T12:19:31.085Z,3.40
2023-03-29T12:22:07.996Z,2.80
2023-03-29T12:24:42.357Z,2.90
2023-03-29T12:27:22.338Z,2.70
2023-03-29T12:30:21.463Z,2.80
2023-03-29T12:33:07.305Z,2.80
2023-03-29T12:35:45.982Z,3.20
2023-03-29T12:38:22.227Z,3.00
2023-03-29T12:41:00.859Z,3.10
2023-03-29T12:43:34.457Z,3.30
2023-03-29T12:46:09.726Z,2.90
2023-03-29T12:48:42.870Z,3.00
2023-03-29T12:51:17.491Z,3.40
2023-03-29T12:53:50.586Z,3.20
2023-03-29T12:56:24.787Z,3.00
2023-03-29T12:59:06.784Z,2.70
2023-03-29T13:01:42.229Z,3.10
2023-03-29T13:04:20.985Z,3.40
2023-03-29T13:07:05.054Z,3.50
2023-03-29T13:09:48.721Z,3.50
2023-03-29T13:12:28.007Z,3.40
2023-03-29T13:15:02.647Z,3.10
2023-03-29T13:17:44.950Z,3.60
2023-03-29T13:20:29.540Z,3.10
2023-03-29T13:25:48.092Z,3.20
2023-03-29T13:28:27.275Z,2.60
2023-03-29T13:31:05.120Z,2.60
2023-03-29T13:33:49.821Z,2.90
2023-03-29T13:36:31.905Z,3.00
2023-03-29T13:39:07.109Z,2.80
2023-03-29T13:41:50.305Z,2.80
2023-03-29T13:44:30.504Z,2.80
2023-03-29T13:47:29.080Z,2.90
2023-03-29T13:50:05.532Z,2.50
2023-03-29T13:52:40.320Z,2.20
2023-03-29T13:55:17.404Z,2.70
2023-03-29T13:57:54.626Z,2.60
2023-03-29T14:00:30.149Z,2.70
2023-03-29T14:03:04.937Z,2.60
2023-03-29T14:05:38.652Z,2.30
2023-03-29T14:08:16.928Z,1.80
2023-03-29T14:10:48.894Z,1.90
2023-03-29T14:13:23.721Z,1.90
2023-03-29T14:15:57.691Z,2.20
2023-03-29T14:18:34.294Z,2.60
2023-03-29T14:21:07.218Z,2.20
2023-03-29T14:23:42.177Z,2.60
2023-03-29T14:26:18.779Z,2.20
2023-03-29T14:28:53.513Z,2.20
2023-03-29T14:31:26.942Z,1.90
2023-03-29T14:34:00.506Z,1.10
2023-03-29T14:36:34.364Z,0.90
2023-03-29T14:41:39.024Z,1.40
2023-03-29T14:44:12.510Z,1.10
2023-03-29T14:46:44.780Z,0.80
2023-03-29T14:49:18.962Z,1.80
2023-03-29T14:51:51.810Z,1.40
2023-03-29T14:54:25.342Z,2.00
2023-03-29T14:56:58.388Z,0.90
2023-03-29T14:59:33.876Z,1.10
2023-03-29T15:02:06.433Z,1.70
2023-03-29T15:04:39.078Z,2.00
2023-03-29T15:07:11.149Z,3.00
2023-03-29T15:09:46.173Z,2.30
2023-03-29T15:12:18.690Z,1.90
2023-03-29T15:14:51.418Z,2.10
2023-03-29T15:17:43.140Z,2.20
2023-03-29T15:20:25.712Z,2.20
2023-03-29T15:23:01.048Z,3.10
2023-03-29T15:25:37.830Z,2.60
2023-03-29T15:28:28.297Z,2.50
2023-03-29T15:31:08.292Z,3.10
2023-03-29T15:33:41.819Z,2.90
2023-03-29T15:36:15.597Z,2.90
2023-03-29T15:38:51.720Z,2.60
2023-03-29T15:41:23.673Z,2.70
2023-03-29T15:43:55.828Z,3.00
2023-03-29T15:46:28.013Z,3.20
2023-03-29T15:49:00.220Z,2.90
2023-03-29T15:51:32.121Z,3.00
2023-03-29T15:54:04.225Z,3.10
2023-03-29T15:56:41.340Z,3.50
2023-03-29T15:59:14.793Z,3.40
2023-03-29T16:01:47.831Z,3.70
2023-03-29T16:04:21.173Z,3.60
2023-03-29T16:06:55.333Z,3.80
2023-03-29T16:09:27.387Z,3.70
2023-03-29T16:12:01.643Z,3.60
2023-03-29T16:17:06.535Z,3.90
2023-03-29T16:19:38.499Z,3.00
2023-03-29T16:22:11.046Z,3.50
2023-03-29T16:24:43.831Z,3.90
2023-03-29T16:27:17.129Z,2.20
2023-03-29T16:29:48.935Z,3.90
2023-03-29T16:32:21.500Z,3.70
2023-03-29T16:34:53.653Z,2.50
2023-03-29T16:37:26.132Z,4.10
2023-03-29T16:39:58.267Z,2.40
2023-03-29T16:42:30.360Z,4.10
2023-03-29T16:45:03.015Z,3.80
2023-03-29T16:47:35.276Z,2.80
2023-03-29T16:50:08.570Z,4.20
2023-03-29T16:52:40.664Z,3.40
2023-03-29T16:55:15.194Z,3.80
2023-03-29T16:57:47.739Z,2.70
2023-03-29T17:00:21.898Z,3.20
2023-03-29T17:02:54.064Z,2.80
2023-03-29T17:05:26.489Z,2.30
2023-03-29T17:07:58.827Z,3.50
2023-03-29T17:10:31.420Z,2.50
2023-03-29T17:13:04.146Z,3.20
2023-03-29T17:15:39.431Z,2.90
2023-03-29T17:18:12.384Z,3.00
2023-03-29T17:20:44.201Z,3.30
2023-03-29T17:23:16.221Z,2.70
2023-03-29T17:25:48.054Z,3.10
2023-03-29T17:28:20.131Z,2.70
2023-03-29T17:30:51.966Z,3.10
2023-03-29T17:33:26.217Z,2.60
2023-03-29T17:35:58.166Z,2.80
2023-03-29T17:38:34.542Z,3.60
2023-03-29T17:41:07.138Z,3.10
2023-03-29T17:43:39.996Z,4.50
2023-03-29T17:46:12.066Z,3.30
2023-03-29T17:48:44.664Z,4.30
2023-03-29T17:51:16.461Z,5.00
2023-03-29T17:53:48.529Z,3.60
2023-03-29T17:56:21.723Z,3.30
2023-03-29T17:58:53.899Z,4.30
2023-03-29T18:01:25.804Z,4.30
2023-03-29T18:03:58.006Z,3.80
2023-03-29T18:06:29.926Z,4.30
2023-03-29T18:09:02.502Z,6.30
2023-03-29T18:11:36.542Z,3.80
2023-03-29T18:16:41.527Z,4.10
2023-03-29T18:21:45.557Z,3.70
2023-03-29T18:24:17.982Z,3.60
2023-03-29T18:26:49.938Z,4.20
2023-03-29T18:29:22.194Z,3.70
2023-03-29T18:31:54.073Z,3.20
2023-03-29T18:34:26.778Z,3.60
2023-03-29T18:36:58.771Z,4.20
2023-03-29T18:39:32.074Z,3.80
2023-03-29T18:42:03.875Z,4.30
2023-03-29T18:44:36.166Z,5.20
2023-03-29T18:47:08.820Z,4.50
2023-03-29T18:49:41.125Z,4.80
2023-03-29T18:52:12.905Z,4.30
2023-03-29T18:54:45.137Z,4.80
2023-03-29T18:57:17.028Z,3.90
2023-03-29T18:59:49.390Z,4.70
2023-03-29T19:02:21.243Z,4.70
2023-03-29T19:04:53.602Z,4.50
2023-03-29T19:07:25.370Z,4.10
2023-03-29T19:09:57.622Z,5.80
2023-03-29T19:12:30.165Z,5.00
2023-03-29T19:15:02.305Z,5.20
2023-03-29T19:17:34.222Z,5.80
2023-03-29T19:20:10.165Z,6.10
2023-03-29T19:22:42.182Z,6.00
2023-03-29T19:25:14.859Z,5.30
2023-03-29T19:27:46.674Z,6.10
2023-03-29T19:30:20.243Z,6.40
2023-03-29T19:32:52.452Z,6.60
2023-03-29T19:35:24.868Z,7.50
2023-03-29T19:37:56.655Z,7.10
2023-03-29T19:40:29.000Z,8.10
2023-03-29T19:43:00.883Z,8.30
2023-03-29T19:45:33.342Z,7.80
2023-03-29T19:48:05.432Z,7.60
2023-03-29T19:50:42.055Z,8.60
2023-03-29T19:53:14.663Z,6.80
2023-03-29T19:55:46.921Z,7.00
2023-03-29T19:58:18.753Z,6.50
2023-03-29T20:00:53.460Z,7.10
2023-03-29T20:03:28.515Z,7.00
2023-03-29T20:06:01.485Z,7.50
2023-03-29T20:08:33.470Z,6.80
2023-03-29T20:11:10.440Z,7.60
2023-03-29T20:13:44.542Z,7.70
2023-03-29T20:16:19.065Z,7.60
2023-03-29T20:21:21.738Z,7.20
2023-03-29T20:23:53.582Z,7.20
2023-03-29T20:26:25.983Z,7.70
2023-03-29T20:28:57.935Z,8.20
2023-03-29T20:31:31.696Z,8.90
2023-03-29T20:34:03.563Z,8.20
2023-03-29T20:36:36.235Z,11.40
2023-03-29T20:39:08.567Z,9.00
2023-03-29T20:41:40.694Z,9.20
2023-03-29T20:44:13.722Z,9.20
2023-03-29T20:46:54.803Z,10.10
2023-03-29T20:49:27.278Z,8.20
2023-03-29T20:51:59.496Z,8.70
2023-03-29T20:54:33.340Z,9.10
2023-03-29T20:57:07.161Z,8.80
2023-03-29T20:59:39.409Z,8.40
2023-03-29T21:02:12.709Z,8.50
2023-03-29T21:04:44.997Z,9.40
2023-03-29T21:07:18.336Z,9.80
2023-03-29T21:09:50.680Z,9.80
2023-03-29T21:12:23.685Z,10.10
2023-03-29T21:14:55.482Z,10.40
2023-03-29T21:17:28.019Z,10.20
2023-03-29T21:19:59.833Z,11.50
2023-03-29T21:22:34.318Z,10.30
2023-03-29T21:25:09.774Z,10.50
2023-03-29T21:27:41.856Z,10.20
2023-03-29T21:30:14.659Z,10.90
2023-03-29T21:32:46.850Z,11.60
2023-03-29T21:35:18.976Z,11.50
2023-03-29T21:37:51.398Z,11.20
2023-03-29T21:40:23.293Z,11.90
2023-03-29T21:42:55.458Z,11.70
2023-03-29T21:45:27.461Z,12.10
2023-03-29T21:48:00.097Z,11.30
2023-03-29T21:50:33.958Z,11.80
2023-03-29T21:53:06.737Z,13.00
2023-03-29T21:55:38.662Z,12.10
2023-03-29T21:58:11.167Z,11.80
2023-03-29T22:00:43.081Z,12.50
2023-03-29T22:03:16.154Z,11.60
2023-03-29T22:05:58.090Z,11.80
2023-03-29T22:08:30.248Z,10.70
2023-03-29T22:11:09.002Z,11.10
2023-03-29T22:13:41.956Z,11.40
2023-03-29T22:16:16.856Z,10.80
2023-03-29T22:18:50.178Z,10.90
2023-03-29T22:21:23.727Z,11.90
2023-03-29T22:23:57.498Z,11.50
2023-03-29T22:26:32.207Z,12.20
2023-03-29T22:29:04.298Z,11.20
2023-03-29T22:31:37.876Z,10.60
2023-03-29T22:34:10.229Z,12.10
2023-03-29T22:36:42.018Z,11.70
2023-03-29T22:39:14.426Z,11.50
2023-03-29T22:41:46.850Z,11.00
2023-03-29T22:44:19.170Z,10.50
2023-03-29T22:46:51.633Z,10.10
2023-03-29T22:49:23.674Z,10.90
2023-03-29T22:51:55.875Z,10.10
2023-03-29T22:54:27.953Z,10.10
2023-03-29T22:57:00.160Z,10.20
2023-03-29T22:59:32.679Z,11.30
2023-03-29T23:02:04.503Z,11.90
2023-03-29T23:04:38.953Z,11.30
2023-03-29T23:07:11.102Z,12.90
2023-03-29T23:09:43.487Z,11.50
2023-03-29T23:12:15.525Z,11.50
2023-03-29T23:14:47.689Z,12.30
2023-03-29T23:17:20.636Z,13.20
2023-03-29T23:19:53.020Z,12.60
2023-03-29T23:22:24.861Z,11.00
2023-03-29T23:24:57.134Z,11.80
2023-03-29T23:27:28.963Z,12.00
2023-03-29T23:30:01.797Z,10.80
2023-03-29T23:32:34.013Z,11.20
2023-03-29T23:35:07.428Z,11.40
2023-03-29T23:37:39.800Z,10.10
2023-03-29T23:40:14.037Z,11.10
2023-03-29T23:42:48.499Z,11.50
2023-03-29T23:45:21.477Z,9.50
2023-03-29T23:47:53.395Z,9.80
2023-03-29T23:50:29.015Z,9.80
2023-03-29T23:53:01.017Z,9.20
2023-03-29T23:55:33.794Z,10.60
2023-03-29T23:58:05.514Z,10.50
